createdAt,value
2022-12-15T00:02:38.064Z,-3.20
2022-12-15T00:05:24.519Z,-2.00
2022-12-15T00:08:10.223Z,-3.10
2022-12-15T00:10:56.461Z,-3.20
2022-12-15T00:13:42.374Z,-3.30
2022-12-15T00:16:28.371Z,-3.40
2022-12-15T00:19:14.150Z,-3.20
2022-12-15T00:22:00.431Z,-3.50
2022-12-15T00:27:35.755Z,-3.30
2022-12-15T00:30:23.549Z,-3.40
2022-12-15T00:33:09.869Z,-3.40
2022-12-15T00:35:56.497Z,-3.40
2022-12-15T00:38:42.350Z,-3.30
2022-12-15T00:41:14.712Z,-3.50
2022-12-15T00:43:42.527Z,-3.50
2022-12-15T00:46:28.481Z,-1.80
2022-12-15T00:48:56.461Z,-1.60
2022-12-15T00:54:30.474Z,-3.50
2022-12-15T00:57:16.585Z,-1.60
2022-12-15T01:00:02.481Z,-3.80
2022-12-15T01:02:48.704Z,-3.60
2022-12-15T01:05:35.166Z,-4.50
2022-12-15T01:08:20.992Z,-3.60
2022-12-15T01:11:06.749Z,-3.50
2022-12-15T01:13:53.245Z,-2.70
2022-12-15T01:16:39.109Z,-4.00
2022-12-15T01:19:27.236Z,-3.70
2022-12-15T01:21:54.783Z,-3.70
2022-12-15T01:24:22.279Z,-3.90
2022-12-15T01:26:49.891Z,-3.80
2022-12-15T01:29:17.496Z,-3.70
2022-12-15T01:31:45.091Z,-3.70
2022-12-15T01:34:20.168Z,-3.90
2022-12-15T01:36:47.850Z,-3.70
2022-12-15T01:39:16.115Z,-3.60
2022-12-15T01:41:43.635Z,-3.90
2022-12-15T01:44:24.564Z,-3.70
2022-12-15T01:46:55.158Z,-3.70
2022-12-15T01:49:28.019Z,-1.50
2022-12-15T01:52:05.833Z,-2.10
2022-12-15T01:54:51.418Z,-1.90
2022-12-15T01:57:28.604Z,-3.70
2022-12-15T02:00:02.124Z,-3.70
2022-12-15T02:02:34.371Z,-4.10
2022-12-15T02:05:05.013Z,-2.80
2022-12-15T02:07:32.591Z,-3.80
2022-12-15T02:10:03.465Z,-3.20
2022-12-15T02:13:04.438Z,-3.50
2022-12-15T02:15:55.467Z,-3.90
2022-12-15T02:18:46.830Z,-3.80
2022-12-15T02:21:24.069Z,-3.60
2022-12-15T02:24:15.987Z,-3.70
2022-12-15T02:27:08.176Z,-3.90
2022-12-15T02:30:10.937Z,-3.90
2022-12-15T02:32:48.247Z,-4.00
2022-12-15T02:35:24.667Z,-3.90
2022-12-15T02:37:52.366Z,-4.00
2022-12-15T02:42:53.849Z,-3.70
2022-12-15T02:45:33.795Z,-3.50
2022-12-15T02:48:11.608Z,-4.00
2022-12-15T02:51:11.794Z,-3.70
2022-12-15T02:54:15.727Z,-3.80
2022-12-15T02:56:51.729Z,-4.00
2022-12-15T02:59:47.925Z,-3.20
2022-12-15T03:02:15.904Z,-3.80
2022-12-15T03:07:14.707Z,-4.00
2022-12-15T03:09:42.559Z,-4.30
2022-12-15T03:14:39.729Z,-4.00
2022-12-15T03:17:07.670Z,-2.40
2022-12-15T03:19:35.171Z,-3.50
2022-12-15T03:22:02.999Z,-3.10
2022-12-15T03:24:30.594Z,-1.70
2022-12-15T03:26:58.427Z,-3.80
2022-12-15T03:29:30.653Z,-4.20
2022-12-15T03:31:58.315Z,-4.40
2022-12-15T03:34:26.641Z,-3.90
2022-12-15T03:36:54.421Z,-3.80
2022-12-15T03:39:23.090Z,-4.10
2022-12-15T03:41:50.785Z,-3.50
2022-12-15T03:44:18.516Z,-1.20
2022-12-15T03:46:47.537Z,-4.30
2022-12-15T03:54:17.951Z,-4.00
2022-12-15T03:56:45.547Z,-4.10
2022-12-15T03:59:13.205Z,-3.80
2022-12-15T04:01:47.099Z,-2.50
2022-12-15T04:04:14.963Z,-4.00
2022-12-15T04:06:42.580Z,-4.50
2022-12-15T04:11:37.942Z,-4.10
2022-12-15T04:16:33.412Z,-4.10
2022-12-15T04:19:28.639Z,-2.70
2022-12-15T04:21:56.276Z,-4.10
2022-12-15T04:24:42.149Z,-4.20
2022-12-15T04:30:15.301Z,-4.10
2022-12-15T04:33:01.356Z,-4.10
2022-12-15T04:35:49.920Z,-2.70
2022-12-15T04:38:36.148Z,-4.20
2022-12-15T04:41:22.333Z,-3.10
2022-12-15T04:44:10.425Z,-1.40
2022-12-15T04:46:56.419Z,-4.10
2022-12-15T04:49:42.866Z,-5.50
2022-12-15T04:55:15.420Z,-4.10
2022-12-15T04:58:01.519Z,-4.20
2022-12-15T05:00:47.519Z,-2.20
2022-12-15T05:03:34.930Z,-2.30
2022-12-15T05:14:44.130Z,-4.20
2022-12-15T05:17:32.160Z,-5.20
2022-12-15T05:20:19.595Z,-4.80
2022-12-15T05:25:52.191Z,-4.30
2022-12-15T05:28:38.324Z,-4.30
2022-12-15T05:31:25.740Z,-4.30
2022-12-15T05:33:58.241Z,-4.30
2022-12-15T05:36:29.756Z,-4.40
2022-12-15T05:41:25.193Z,-4.30
2022-12-15T05:43:52.736Z,-3.30
2022-12-15T05:46:20.352Z,-4.80
2022-12-15T05:48:47.921Z,-4.40
2022-12-15T05:51:15.457Z,-5.20
2022-12-15T05:53:43.133Z,-5.20
2022-12-15T05:56:12.890Z,-4.40
2022-12-15T05:58:45.461Z,-4.90
2022-12-15T06:01:15.802Z,-3.30
2022-12-15T06:03:43.449Z,-2.90
2022-12-15T06:06:12.766Z,-4.50
2022-12-15T06:08:42.112Z,-4.40
2022-12-15T06:11:16.580Z,-6.20
2022-12-15T06:13:47.064Z,-4.50
2022-12-15T06:16:20.092Z,-3.70
2022-12-15T06:18:54.342Z,-4.50
2022-12-15T06:21:28.202Z,-4.40
2022-12-15T06:23:56.960Z,-5.00
2022-12-15T06:26:27.261Z,-2.50
2022-12-15T06:28:57.569Z,-4.90
2022-12-15T06:31:26.745Z,-4.70
2022-12-15T06:34:01.310Z,-3.20
2022-12-15T06:39:01.730Z,-4.50
2022-12-15T06:41:30.719Z,-3.00
2022-12-15T06:43:59.840Z,-4.50
2022-12-15T06:46:29.486Z,-4.50
2022-12-15T06:48:57.850Z,-3.30
2022-12-15T06:51:32.925Z,-4.70
2022-12-15T06:56:34.675Z,-4.60
2022-12-15T06:59:07.339Z,-4.50
2022-12-15T07:01:40.457Z,-4.10
2022-12-15T07:04:11.494Z,-4.60
2022-12-15T07:06:40.222Z,-4.50
2022-12-15T07:09:12.702Z,-4.50
2022-12-15T07:11:41.346Z,-2.60
2022-12-15T07:14:10.060Z,-3.10
2022-12-15T07:16:37.675Z,-4.70
2022-12-15T07:19:05.454Z,-5.00
2022-12-15T07:21:33.068Z,-5.20
2022-12-15T07:26:34.001Z,-4.60
2022-12-15T07:31:30.824Z,-4.50
2022-12-15T07:36:27.820Z,-4.50
2022-12-15T07:39:03.994Z,-2.20
2022-12-15T07:41:31.771Z,-3.10
2022-12-15T07:43:59.844Z,-3.90
2022-12-15T07:46:29.282Z,-3.80
2022-12-15T07:48:56.948Z,-4.30
2022-12-15T07:53:52.329Z,-4.20
2022-12-15T07:56:20.409Z,-3.20
2022-12-15T08:01:16.875Z,-4.00
2022-12-15T08:03:45.341Z,-3.20
2022-12-15T08:06:14.892Z,-4.20
2022-12-15T08:08:44.697Z,-5.40
2022-12-15T08:11:18.558Z,-1.30
2022-12-15T08:14:03.444Z,-4.20
2022-12-15T08:19:03.795Z,-4.10
2022-12-15T08:21:32.450Z,-2.10
2022-12-15T08:24:04.195Z,-4.10
2022-12-15T08:26:31.922Z,-3.90
2022-12-15T08:29:40.575Z,-4.10
2022-12-15T08:31:54.414Z,-4.10
2022-12-15T08:36:49.853Z,-3.90
2022-12-15T08:39:17.790Z,-4.40
2022-12-15T08:41:45.666Z,-3.20
2022-12-15T08:44:13.359Z,-3.40
2022-12-15T08:49:08.865Z,-3.60
2022-12-15T08:51:36.460Z,-2.00
2022-12-15T08:54:04.064Z,-3.40
2022-12-15T08:56:31.569Z,-3.30
2022-12-15T08:59:01.577Z,-3.20
2022-12-15T09:01:32.528Z,-3.50
2022-12-15T09:04:01.529Z,-1.80
2022-12-15T09:06:32.042Z,-2.90
2022-12-15T09:09:02.318Z,-2.80
2022-12-15T09:11:30.699Z,-2.90
2022-12-15T09:13:58.821Z,-1.90
2022-12-15T09:16:27.824Z,-2.50
2022-12-15T09:18:57.731Z,-1.30
2022-12-15T09:21:27.425Z,-2.70
2022-12-15T09:24:00.766Z,-2.00
2022-12-15T09:26:30.881Z,-2.10
2022-12-15T09:29:00.307Z,-2.20
2022-12-15T09:31:32.940Z,-1.30
2022-12-15T09:34:02.044Z,-2.10
2022-12-15T09:36:34.497Z,-1.30
2022-12-15T09:39:03.143Z,-1.40
2022-12-15T09:41:35.309Z,-1.70
2022-12-15T09:44:20.812Z,-1.50
2022-12-15T09:47:25.082Z,-1.30
2022-12-15T09:50:03.597Z,-1.40
2022-12-15T09:52:39.662Z,-1.30
2022-12-15T09:55:21.489Z,-1.10
2022-12-15T09:58:11.484Z,0.60
2022-12-15T10:01:11.299Z,-1.20
2022-12-15T10:04:02.873Z,-1.00
2022-12-15T10:06:37.958Z,-0.90
2022-12-15T10:09:26.765Z,-0.80
2022-12-15T10:12:02.936Z,-0.70
2022-12-15T10:14:46.783Z,-0.70
2022-12-15T10:17:41.703Z,-0.50
2022-12-15T10:20:26.996Z,-0.50
2022-12-15T10:22:56.841Z,-0.10
2022-12-15T10:25:33.112Z,0.20
2022-12-15T10:28:15.727Z,0.90
2022-12-15T10:31:02.332Z,-0.30
2022-12-15T10:33:36.688Z,0.10
2022-12-15T10:36:16.502Z,-0.60
2022-12-15T10:38:50.499Z,-0.30
2022-12-15T10:41:23.938Z,0.40
2022-12-15T10:43:53.153Z,0.00
2022-12-15T10:46:23.008Z,-0.60
2022-12-15T10:48:57.974Z,3.50
2022-12-15T10:51:43.482Z,0.40
2022-12-15T10:54:14.726Z,0.50
2022-12-15T10:56:54.491Z,0.70
2022-12-15T10:59:28.739Z,0.40
2022-12-15T11:01:56.478Z,1.80
2022-12-15T11:04:26.759Z,2.50
2022-12-15T11:07:03.064Z,2.40
2022-12-15T11:09:36.811Z,0.80
2022-12-15T11:12:41.389Z,0.60
2022-12-15T11:15:23.983Z,0.80
2022-12-15T11:18:16.380Z,0.00
2022-12-15T11:21:09.988Z,1.60
2022-12-15T11:27:01.187Z,-1.80
2022-12-15T11:29:42.839Z,3.00
2022-12-15T11:32:13.140Z,0.50
2022-12-15T11:34:46.754Z,1.50
2022-12-15T11:37:17.186Z,1.50
2022-12-15T11:39:54.435Z,1.20
2022-12-15T11:42:46.570Z,1.50
2022-12-15T11:45:34.225Z,1.60
2022-12-15T11:48:21.512Z,1.60
2022-12-15T11:51:02.351Z,1.50
2022-12-15T11:54:00.360Z,1.40
2022-12-15T11:56:27.726Z,1.30
2022-12-15T11:59:15.199Z,2.70
2022-12-15T12:01:49.445Z,1.20
2022-12-15T12:04:33.668Z,1.90
2022-12-15T12:07:24.043Z,2.80
2022-12-15T12:10:03.366Z,1.00
2022-12-15T12:12:38.854Z,1.40
2022-12-15T12:15:28.785Z,0.90
2022-12-15T12:18:07.638Z,1.80
2022-12-15T12:20:50.865Z,0.90
2022-12-15T12:23:47.495Z,1.00
2022-12-15T12:26:26.299Z,1.20
2022-12-15T12:29:00.587Z,-0.60
2022-12-15T12:31:33.782Z,3.60
2022-12-15T12:34:08.904Z,1.60
2022-12-15T12:36:39.980Z,1.70
2022-12-15T12:39:18.814Z,1.40
2022-12-15T12:41:55.691Z,2.00
2022-12-15T12:44:32.404Z,1.20
2022-12-15T12:47:18.450Z,1.60
2022-12-15T12:49:50.441Z,2.10
2022-12-15T12:52:25.584Z,1.50
2022-12-15T12:55:26.069Z,1.80
2022-12-15T12:57:54.690Z,2.30
2022-12-15T13:00:30.794Z,2.60
2022-12-15T13:03:20.439Z,4.20
2022-12-15T13:05:50.795Z,2.20
2022-12-15T13:08:46.444Z,1.80
2022-12-15T13:11:52.640Z,2.20
2022-12-15T13:14:38.882Z,2.30
2022-12-15T13:17:26.986Z,2.40
2022-12-15T13:19:58.219Z,4.30
2022-12-15T13:22:40.359Z,2.50
2022-12-15T13:25:39.372Z,2.60
2022-12-15T13:28:45.618Z,2.70
2022-12-15T13:31:20.905Z,2.10
2022-12-15T13:33:51.454Z,2.70
2022-12-15T13:36:37.693Z,3.40
2022-12-15T13:39:11.147Z,3.10
2022-12-15T13:42:23.815Z,2.70
2022-12-15T13:44:45.349Z,2.90
2022-12-15T13:47:19.184Z,4.60
2022-12-15T13:49:53.101Z,4.40
2022-12-15T13:52:33.128Z,4.50
2022-12-15T13:55:27.890Z,2.70
2022-12-15T13:58:04.161Z,2.80
2022-12-15T14:00:32.819Z,2.40
2022-12-15T14:03:11.353Z,3.90
2022-12-15T14:05:42.940Z,3.80
2022-12-15T14:08:15.613Z,2.10
2022-12-15T14:10:54.717Z,2.70
2022-12-15T14:13:27.141Z,2.50
2022-12-15T14:16:15.402Z,2.20
2022-12-15T14:18:43.871Z,3.40
2022-12-15T14:21:30.380Z,2.40
2022-12-15T14:24:28.836Z,2.40
2022-12-15T14:26:45.426Z,2.10
2022-12-15T14:29:13.068Z,2.40
2022-12-15T14:31:40.962Z,4.40
2022-12-15T14:34:41.930Z,3.80
2022-12-15T14:37:17.383Z,2.10
2022-12-15T14:39:50.283Z,3.10
2022-12-15T14:42:23.913Z,2.80
2022-12-15T14:44:57.397Z,2.60
2022-12-15T14:47:29.102Z,1.30
2022-12-15T14:49:58.368Z,1.10
2022-12-15T14:52:31.224Z,2.90
2022-12-15T14:55:03.922Z,2.40
2022-12-15T14:57:48.127Z,1.50
2022-12-15T15:00:49.507Z,2.90
2022-12-15T15:03:13.987Z,0.50
2022-12-15T15:03:26.344Z,3.00
2022-12-15T15:06:04.901Z,1.10
2022-12-15T15:08:35.673Z,3.80
2022-12-15T15:11:18.098Z,1.00
2022-12-15T15:13:46.104Z,2.40
2022-12-15T15:16:17.534Z,2.40
2022-12-15T15:18:49.865Z,0.90
2022-12-15T15:21:30.504Z,0.60
2022-12-15T15:24:20.133Z,1.00
2022-12-15T15:26:47.622Z,2.50
2022-12-15T15:29:42.101Z,1.40
2022-12-15T15:32:18.798Z,1.00
2022-12-15T15:34:47.293Z,2.30
2022-12-15T15:37:22.661Z,1.80
2022-12-15T15:39:56.400Z,0.90
2022-12-15T15:42:27.881Z,1.30
2022-12-15T15:44:59.625Z,2.70
2022-12-15T15:47:27.366Z,0.90
2022-12-15T15:49:58.191Z,0.80
2022-12-15T15:52:25.878Z,0.30
2022-12-15T15:54:53.687Z,0.60
2022-12-15T15:57:21.094Z,2.20
2022-12-15T15:59:48.704Z,2.00
2022-12-15T16:02:16.331Z,0.10
2022-12-15T16:04:44.423Z,0.20
2022-12-15T16:07:22.647Z,0.30
2022-12-15T16:09:50.764Z,0.50
2022-12-15T16:12:33.560Z,0.20
2022-12-15T16:15:01.029Z,1.00
2022-12-15T16:17:28.412Z,0.60
2022-12-15T16:19:56.181Z,0.10
2022-12-15T16:22:24.396Z,0.40
2022-12-15T16:24:51.793Z,1.00
2022-12-15T16:27:19.235Z,-0.20
2022-12-15T16:29:46.599Z,2.20
2022-12-15T16:32:14.052Z,1.10
2022-12-15T16:34:41.996Z,2.60
2022-12-15T16:37:25.997Z,2.00
2022-12-15T16:39:53.427Z,0.20
2022-12-15T16:42:20.814Z,0.20
2022-12-15T16:44:48.258Z,2.10
2022-12-15T16:47:16.115Z,-0.30
2022-12-15T16:49:43.504Z,1.40
2022-12-15T16:52:21.138Z,-0.20
2022-12-15T16:54:50.051Z,0.20
2022-12-15T16:57:18.397Z,1.00
2022-12-15T16:59:45.886Z,1.90
2022-12-15T17:02:29.185Z,0.00
2022-12-15T17:04:58.209Z,0.20
2022-12-15T17:07:28.042Z,0.20
2022-12-15T17:09:56.095Z,0.20
2022-12-15T17:12:23.597Z,2.10
2022-12-15T17:14:50.945Z,0.30
2022-12-15T17:17:19.574Z,-0.10
2022-12-15T17:20:19.800Z,0.10
2022-12-15T17:22:36.150Z,2.20
2022-12-15T17:25:03.659Z,0.00
2022-12-15T17:27:31.925Z,0.20
2022-12-15T17:30:00.651Z,1.20
2022-12-15T17:32:28.103Z,1.80
2022-12-15T17:34:55.861Z,2.20
2022-12-15T17:37:26.197Z,-1.70
2022-12-15T17:39:56.877Z,0.30
2022-12-15T17:42:24.268Z,0.60
2022-12-15T17:44:51.968Z,2.90
2022-12-15T17:47:19.624Z,-0.60
2022-12-15T17:49:47.489Z,2.40
2022-12-15T17:52:24.339Z,-0.20
2022-12-15T17:54:52.301Z,0.20
2022-12-15T17:57:19.906Z,1.10
2022-12-15T17:59:48.105Z,0.20
2022-12-15T18:02:16.015Z,0.30
2022-12-15T18:04:44.253Z,1.60
2022-12-15T18:07:22.847Z,2.70
2022-12-15T18:09:52.118Z,0.30
2022-12-15T18:12:26.824Z,3.00
2022-12-15T18:14:55.431Z,0.60
2022-12-15T18:17:23.568Z,1.90
2022-12-15T18:19:51.043Z,0.40
2022-12-15T18:22:22.233Z,0.10
2022-12-15T18:24:52.611Z,0.50
2022-12-15T18:27:28.867Z,0.60
2022-12-15T18:29:57.078Z,0.00
2022-12-15T18:32:26.695Z,3.00
2022-12-15T18:34:55.057Z,-0.20
2022-12-15T18:37:24.991Z,0.50
2022-12-15T18:39:52.774Z,0.20
2022-12-15T18:42:22.830Z,-0.30
2022-12-15T18:44:52.393Z,2.20
2022-12-15T18:47:22.307Z,2.10
2022-12-15T18:49:50.324Z,-0.10
2022-12-15T18:52:23.615Z,-0.30
2022-12-15T18:54:52.622Z,-0.10
2022-12-15T18:57:32.462Z,2.10
2022-12-15T19:00:24.388Z,0.00
2022-12-15T19:02:57.985Z,0.20
2022-12-15T19:05:28.531Z,1.80
2022-12-15T19:08:26.965Z,2.20
2022-12-15T19:11:00.723Z,0.20
2022-12-15T19:13:34.935Z,1.40
2022-12-15T19:16:05.398Z,0.90
2022-12-15T19:18:51.766Z,0.20
2022-12-15T19:21:43.911Z,-0.20
2022-12-15T19:24:45.409Z,0.40
2022-12-15T19:27:23.185Z,0.20
2022-12-15T19:29:51.029Z,0.30
2022-12-15T19:32:18.557Z,-0.20
2022-12-15T19:34:46.219Z,2.70
2022-12-15T19:37:29.570Z,0.10
2022-12-15T19:39:59.953Z,0.90
2022-12-15T19:42:33.659Z,1.70
2022-12-15T19:45:02.188Z,0.00
2022-12-15T19:47:29.869Z,0.10
2022-12-15T19:49:57.279Z,1.10
2022-12-15T19:52:24.889Z,0.00
2022-12-15T19:54:52.388Z,-0.20
2022-12-15T19:57:21.114Z,-0.30
2022-12-15T19:59:49.046Z,-0.40
2022-12-15T20:02:18.780Z,-0.50
2022-12-15T20:04:47.436Z,1.80
2022-12-15T20:07:25.905Z,-0.10
2022-12-15T20:09:53.442Z,0.90
2022-12-15T20:12:22.227Z,-0.30
2022-12-15T20:14:49.693Z,-0.20
2022-12-15T20:17:17.154Z,1.10
2022-12-15T20:19:44.679Z,0.20
2022-12-15T20:22:17.860Z,-0.10
2022-12-15T20:24:46.121Z,0.00
2022-12-15T20:27:16.001Z,1.80
2022-12-15T20:29:44.551Z,-0.10
2022-12-15T20:32:23.195Z,-0.20
2022-12-15T20:34:51.966Z,1.80
2022-12-15T20:37:27.946Z,-1.70
2022-12-15T20:39:57.732Z,-0.20
2022-12-15T20:42:25.524Z,0.00
2022-12-15T20:44:54.461Z,0.20
2022-12-15T20:47:25.590Z,2.10
2022-12-15T20:49:55.000Z,0.90
2022-12-15T20:52:25.091Z,0.10
2022-12-15T20:54:54.191Z,0.10
2022-12-15T20:57:22.060Z,1.20
2022-12-15T20:59:49.469Z,3.60
2022-12-15T21:02:23.117Z,0.10
2022-12-15T21:04:51.392Z,0.30
2022-12-15T21:07:18.931Z,-0.10
2022-12-15T21:09:46.430Z,-1.20
2022-12-15T21:12:26.442Z,0.40
2022-12-15T21:14:54.935Z,0.10
2022-12-15T21:17:24.451Z,1.60
2022-12-15T21:19:52.733Z,-0.40
2022-12-15T21:22:27.695Z,0.10
2022-12-15T21:24:58.295Z,2.10
2022-12-15T21:27:25.671Z,-0.20
2022-12-15T21:29:53.305Z,0.40
2022-12-15T21:32:21.470Z,2.30
2022-12-15T21:34:49.881Z,1.60
2022-12-15T21:37:28.506Z,0.20
2022-12-15T21:39:56.341Z,2.30
2022-12-15T21:42:24.353Z,0.40
2022-12-15T21:44:51.764Z,0.20
2022-12-15T21:47:49.538Z,0.40
2022-12-15T21:50:18.730Z,0.20
2022-12-15T21:52:46.747Z,0.40
2022-12-15T21:55:26.344Z,1.20
2022-12-15T21:57:54.125Z,2.00
2022-12-15T22:00:23.208Z,2.10
2022-12-15T22:02:52.841Z,0.50
2022-12-15T22:05:25.230Z,1.90
2022-12-15T22:07:52.810Z,-1.40
2022-12-15T22:10:21.485Z,3.20
2022-12-15T22:15:40.571Z,1.40
2022-12-15T22:18:19.324Z,2.00
2022-12-15T22:20:51.923Z,1.30
2022-12-15T22:23:20.476Z,0.60
2022-12-15T22:25:51.283Z,1.00
2022-12-15T22:28:26.560Z,1.80
2022-12-15T22:30:54.895Z,2.00
2022-12-15T22:33:25.168Z,2.50
2022-12-15T22:35:55.284Z,-1.20
2022-12-15T22:38:23.823Z,0.90
2022-12-15T22:40:53.930Z,3.20
2022-12-15T22:43:40.027Z,2.10
2022-12-15T22:46:12.588Z,0.70
2022-12-15T22:48:42.034Z,2.20
2022-12-15T22:51:15.044Z,0.60
2022-12-15T22:53:42.632Z,0.80
2022-12-15T22:56:30.771Z,2.40
2022-12-15T22:59:06.106Z,1.70
2022-12-15T23:01:33.997Z,1.40
2022-12-15T23:04:01.822Z,0.60
2022-12-15T23:06:29.725Z,2.10
2022-12-15T23:09:00.372Z,3.10
2022-12-15T23:11:41.425Z,1.30
2022-12-15T23:14:15.036Z,0.50
2022-12-15T23:16:45.867Z,0.60
2022-12-15T23:19:25.841Z,2.40
2022-12-15T23:21:53.306Z,1.50
2022-12-15T23:24:20.934Z,1.50
2022-12-15T23:26:48.623Z,0.70
2022-12-15T23:29:16.189Z,1.40
2022-12-15T23:31:43.675Z,0.60
2022-12-15T23:34:13.179Z,2.60
2022-12-15T23:36:40.640Z,0.60
2022-12-15T23:39:08.258Z,1.70
2022-12-15T23:41:35.990Z,2.10
2022-12-15T23:44:03.761Z,1.30
2022-12-15T23:46:32.164Z,2.10
2022-12-15T23:49:00.038Z,1.60
2022-12-15T23:51:27.541Z,1.30
2022-12-15T23:53:55.020Z,-0.30
2022-12-15T23:56:27.321Z,1.60
2022-12-15T23:58:56.956Z,1.20
